createdAt,value
2022-08-17T00:00:52.107Z,0
2022-08-17T00:01:52.171Z,0
2022-08-17T00:02:52.209Z,0
2022-08-17T00:03:53.619Z,0
2022-08-17T00:04:54.219Z,0
2022-08-17T00:05:54.815Z,0
2022-08-17T00:06:55.409Z,0
2022-08-17T00:07:56.005Z,0
2022-08-17T00:08:56.604Z,0
2022-08-17T00:09:57.200Z,0
2022-08-17T00:10:57.797Z,0
2022-08-17T00:12:40.422Z,0
2022-08-17T00:12:59.980Z,0
2022-08-17T00:14:00.576Z,0
2022-08-17T00:15:01.171Z,0
2022-08-17T00:16:01.768Z,0
2022-08-17T00:17:02.366Z,0
2022-08-17T00:18:02.970Z,0
2022-08-17T00:19:08.326Z,0
2022-08-17T00:20:05.146Z,0
2022-08-17T00:21:10.574Z,0
2022-08-17T00:22:33.716Z,0
2022-08-17T00:23:08.922Z,0
2022-08-17T00:24:09.519Z,0
2022-08-17T00:25:10.115Z,0
2022-08-17T00:26:10.711Z,0
2022-08-17T00:27:11.326Z,0
2022-08-17T00:28:11.923Z,0
2022-08-17T00:29:14.915Z,0
2022-08-17T00:30:14.108Z,0
2022-08-17T00:31:14.705Z,0
2022-08-17T00:33:17.096Z,0
2022-08-17T00:33:22.700Z,0
2022-08-17T00:34:17.674Z,0
2022-08-17T00:35:18.275Z,0
2022-08-17T00:36:18.869Z,0
2022-08-17T00:37:19.489Z,0
2022-08-17T00:38:20.079Z,0
2022-08-17T00:39:20.675Z,0
2022-08-17T00:40:21.272Z,0
2022-08-17T00:41:22.862Z,0
2022-08-17T00:42:27.546Z,0
2022-08-17T00:43:25.051Z,0
2022-08-17T00:44:31.223Z,0
2022-08-17T00:45:27.238Z,0
2022-08-17T00:46:27.834Z,0
2022-08-17T00:47:28.432Z,0
2022-08-17T00:48:30.650Z,0
2022-08-17T00:49:30.620Z,0
2022-08-17T00:50:31.236Z,0
2022-08-17T00:51:31.834Z,0
2022-08-17T00:52:32.430Z,0
2022-08-17T00:53:33.034Z,0
2022-08-17T00:54:33.621Z,0
2022-08-17T00:55:35.213Z,0
2022-08-17T00:56:35.808Z,0
2022-08-17T00:57:36.406Z,0
2022-08-17T00:58:37.001Z,0
2022-08-17T00:59:37.599Z,0
2022-08-17T01:00:38.195Z,0
2022-08-17T01:01:38.840Z,0
2022-08-17T01:02:42.275Z,0
2022-08-17T01:03:40.979Z,0
2022-08-17T01:04:41.574Z,0
2022-08-17T01:05:42.660Z,0
2022-08-17T01:06:43.227Z,0
2022-08-17T01:07:43.824Z,0
2022-08-17T01:08:44.421Z,0
2022-08-17T01:09:45.017Z,0
2022-08-17T01:10:59.457Z,0
2022-08-17T01:11:47.206Z,0
2022-08-17T01:12:47.797Z,0
2022-08-17T01:13:48.394Z,0
2022-08-17T01:14:48.989Z,0
2022-08-17T01:15:49.587Z,0
2022-08-17T01:16:50.182Z,0
2022-08-17T01:17:50.778Z,0
2022-08-17T01:18:51.374Z,0
2022-08-17T01:19:51.974Z,0
2022-08-17T01:20:52.570Z,0
2022-08-17T01:21:53.163Z,0
2022-08-17T01:22:53.757Z,0
2022-08-17T01:23:54.354Z,0
2022-08-17T01:24:54.952Z,0
2022-08-17T01:25:55.546Z,0
2022-08-17T01:26:56.657Z,0
2022-08-17T01:27:57.733Z,0
2022-08-17T01:28:58.358Z,0
2022-08-17T01:29:58.942Z,0
2022-08-17T01:30:59.599Z,0
2022-08-17T01:32:00.162Z,0
2022-08-17T01:33:00.758Z,0
2022-08-17T01:34:01.869Z,0
2022-08-17T01:35:02.514Z,0
2022-08-17T01:36:03.109Z,0
2022-08-17T01:37:03.710Z,0
2022-08-17T01:38:04.323Z,0
2022-08-17T01:39:04.923Z,0
2022-08-17T01:40:05.600Z,0
2022-08-17T01:41:06.162Z,0
2022-08-17T01:42:06.756Z,0
2022-08-17T01:43:07.363Z,0
2022-08-17T01:44:07.949Z,0
2022-08-17T01:45:08.546Z,0
2022-08-17T01:46:09.141Z,0
2022-08-17T01:47:09.740Z,0
2022-08-17T01:48:10.336Z,0
2022-08-17T01:49:10.929Z,0
2022-08-17T01:50:11.526Z,0
2022-08-17T01:51:12.123Z,0
2022-08-17T01:52:12.727Z,0
2022-08-17T01:53:13.316Z,0
2022-08-17T01:54:13.913Z,0
2022-08-17T01:55:14.512Z,0
2022-08-17T01:56:15.108Z,0
2022-08-17T01:57:15.705Z,0
2022-08-17T01:58:16.301Z,0
2022-08-17T01:59:16.900Z,0
2022-08-17T02:00:17.496Z,0
2022-08-17T02:01:18.140Z,0
2022-08-17T02:02:30.920Z,0
2022-08-17T02:03:20.305Z,0
2022-08-17T02:04:20.897Z,0
2022-08-17T02:05:21.494Z,0
2022-08-17T02:06:27.191Z,0
2022-08-17T02:07:26.053Z,0
2022-08-17T02:08:38.953Z,0
2022-08-17T02:09:28.872Z,0
2022-08-17T02:10:33.731Z,0
2022-08-17T02:11:30.036Z,0
2022-08-17T02:12:39.430Z,0
2022-08-17T02:13:32.507Z,0
2022-08-17T02:14:33.116Z,0
2022-08-17T02:15:33.716Z,0
2022-08-17T02:16:37.631Z,0
2022-08-17T02:17:35.899Z,0
2022-08-17T02:18:36.493Z,0
2022-08-17T02:19:37.090Z,0
2022-08-17T02:20:42.670Z,0
2022-08-17T02:21:39.278Z,0
2022-08-17T02:22:39.870Z,0
2022-08-17T02:23:40.470Z,0
2022-08-17T02:25:00.159Z,0
2022-08-17T02:25:42.655Z,0
2022-08-17T02:26:43.251Z,0
2022-08-17T02:27:43.866Z,0
2022-08-17T02:28:44.456Z,0
2022-08-17T02:29:45.056Z,0
2022-08-17T02:31:02.253Z,0
2022-08-17T02:31:47.240Z,0
2022-08-17T02:32:47.835Z,0
2022-08-17T02:33:56.579Z,0
2022-08-17T02:34:50.018Z,0
2022-08-17T02:35:50.615Z,0
2022-08-17T02:36:51.210Z,0
2022-08-17T02:37:51.946Z,0
2022-08-17T02:38:53.397Z,0
2022-08-17T02:39:54.052Z,0
2022-08-17T02:40:54.632Z,0
2022-08-17T02:41:55.230Z,0
2022-08-17T02:42:55.825Z,0
2022-08-17T02:43:56.423Z,0
2022-08-17T02:44:57.019Z,0
2022-08-17T02:45:57.617Z,0
2022-08-17T02:46:58.212Z,0
2022-08-17T02:47:58.809Z,0
2022-08-17T02:48:59.405Z,0
2022-08-17T02:50:00.001Z,0
2022-08-17T02:51:00.606Z,0
2022-08-17T02:52:01.196Z,0
2022-08-17T02:53:04.568Z,0
2022-08-17T02:54:40.053Z,0
2022-08-17T02:55:04.971Z,0
2022-08-17T02:56:05.568Z,0
2022-08-17T02:57:06.161Z,0
2022-08-17T02:58:06.760Z,0
2022-08-17T02:59:07.354Z,0
2022-08-17T03:00:07.953Z,0
2022-08-17T03:01:08.547Z,0
2022-08-17T03:02:09.192Z,0
2022-08-17T03:03:09.744Z,0
2022-08-17T03:04:10.342Z,0
2022-08-17T03:05:10.943Z,0
2022-08-17T03:06:11.535Z,0
2022-08-17T03:07:12.130Z,0
2022-08-17T03:08:13.191Z,0
2022-08-17T03:09:13.992Z,0
2022-08-17T03:10:14.590Z,0
2022-08-17T03:11:15.187Z,0
2022-08-17T03:12:15.784Z,0
2022-08-17T03:13:16.380Z,0
2022-08-17T03:14:16.977Z,0
2022-08-17T03:15:18.569Z,0
2022-08-17T03:16:19.163Z,0
2022-08-17T03:17:19.759Z,0
2022-08-17T03:18:25.786Z,0
2022-08-17T03:19:21.946Z,0
2022-08-17T03:20:22.563Z,0
2022-08-17T03:21:23.159Z,0
2022-08-17T03:22:37.376Z,0
2022-08-17T03:23:25.704Z,0
2022-08-17T03:24:28.799Z,0
2022-08-17T03:25:27.547Z,0
2022-08-17T03:26:29.787Z,0
2022-08-17T03:27:30.455Z,0
2022-08-17T03:28:31.059Z,0
2022-08-17T03:29:31.650Z,0
2022-08-17T03:30:32.246Z,4
2022-08-17T03:31:32.845Z,4
2022-08-17T03:32:34.435Z,4
2022-08-17T03:33:35.031Z,0
2022-08-17T03:34:35.631Z,4
2022-08-17T03:35:36.226Z,4
2022-08-17T03:36:36.825Z,4
2022-08-17T03:37:37.422Z,4
2022-08-17T03:38:39.458Z,4
2022-08-17T03:39:39.646Z,8
2022-08-17T03:40:56.853Z,8
2022-08-17T03:41:41.793Z,12
2022-08-17T03:42:42.394Z,12
2022-08-17T03:43:42.990Z,16
2022-08-17T03:44:43.588Z,16
2022-08-17T03:45:44.184Z,20
2022-08-17T03:46:44.784Z,20
2022-08-17T03:47:45.379Z,28
2022-08-17T03:48:45.997Z,32
2022-08-17T03:49:46.593Z,36
2022-08-17T03:50:47.192Z,44
2022-08-17T03:51:47.787Z,48
2022-08-17T03:52:56.184Z,60
2022-08-17T03:53:49.978Z,68
2022-08-17T03:54:50.575Z,80
2022-08-17T03:55:51.171Z,96
2022-08-17T03:56:51.770Z,108
2022-08-17T03:57:52.368Z,124
2022-08-17T03:58:53.476Z,144
2022-08-17T03:59:54.075Z,160
2022-08-17T04:00:54.671Z,180
2022-08-17T04:01:55.349Z,204
2022-08-17T04:02:55.924Z,232
2022-08-17T04:03:56.522Z,256
2022-08-17T04:04:57.120Z,276
2022-08-17T04:05:57.719Z,300
2022-08-17T04:06:58.319Z,332
2022-08-17T04:07:58.918Z,380
2022-08-17T04:08:59.518Z,432
2022-08-17T04:10:00.175Z,488
2022-08-17T04:11:00.729Z,532
2022-08-17T04:12:04.596Z,576
2022-08-17T04:13:01.941Z,612
2022-08-17T04:14:02.540Z,652
2022-08-17T04:15:03.142Z,688
2022-08-17T04:16:03.747Z,732
2022-08-17T04:17:04.973Z,784
2022-08-17T04:18:07.359Z,860
2022-08-17T04:19:07.170Z,952
2022-08-17T04:20:07.762Z,1056
2022-08-17T04:21:08.362Z,1156
2022-08-17T04:22:08.963Z,1252
2022-08-17T04:23:09.569Z,1348
2022-08-17T04:24:10.162Z,1444
2022-08-17T04:25:10.765Z,1544
2022-08-17T04:26:11.364Z,1640
2022-08-17T04:27:12.959Z,1744
2022-08-17T04:28:16.176Z,1836
2022-08-17T04:29:14.175Z,1936
2022-08-17T04:30:14.774Z,2036
2022-08-17T04:31:15.376Z,2140
2022-08-17T04:32:15.975Z,2256
2022-08-17T04:33:16.840Z,2372
2022-08-17T04:34:19.633Z,2492
2022-08-17T04:35:18.176Z,2620
2022-08-17T04:36:18.798Z,2764
2022-08-17T04:37:19.403Z,2888
2022-08-17T04:38:20.009Z,3024
2022-08-17T04:39:20.608Z,3172
2022-08-17T04:40:21.209Z,3324
2022-08-17T04:41:21.811Z,3488
2022-08-17T04:42:22.411Z,3688
2022-08-17T04:43:23.013Z,3920
2022-08-17T04:44:28.375Z,4168
2022-08-17T04:45:25.208Z,4388
2022-08-17T04:46:26.802Z,4552
2022-08-17T04:47:27.402Z,4736
2022-08-17T04:48:35.801Z,4920
2022-08-17T04:49:29.598Z,5100
2022-08-17T04:50:30.199Z,5260
2022-08-17T04:51:30.804Z,5384
2022-08-17T04:52:43.448Z,5484
2022-08-17T04:53:33.001Z,5576
2022-08-17T04:54:33.600Z,5656
2022-08-17T04:55:34.202Z,5748
2022-08-17T04:56:34.805Z,5848
2022-08-17T04:57:38.469Z,5952
2022-08-17T04:58:37.001Z,6044
2022-08-17T04:59:37.603Z,6124
2022-08-17T05:00:38.205Z,6216
2022-08-17T05:01:38.853Z,6312
2022-08-17T05:02:39.407Z,6420
2022-08-17T05:03:41.002Z,6560
2022-08-17T05:04:41.601Z,6704
2022-08-17T05:05:42.206Z,6824
2022-08-17T05:06:42.804Z,6924
2022-08-17T05:07:43.408Z,7000
2022-08-17T05:08:44.008Z,7096
2022-08-17T05:09:44.611Z,7168
2022-08-17T05:10:45.807Z,7216
2022-08-17T05:11:46.455Z,7256
2022-08-17T05:12:47.118Z,7300
2022-08-17T05:13:47.683Z,7336
2022-08-17T05:14:48.286Z,7384
2022-08-17T05:15:48.909Z,7448
2022-08-17T05:16:49.512Z,7532
2022-08-17T05:17:50.114Z,7632
2022-08-17T05:18:50.720Z,7756
2022-08-17T05:19:52.119Z,7896
2022-08-17T05:20:52.734Z,8068
2022-08-17T05:21:53.329Z,8248
2022-08-17T05:22:53.930Z,8448
2022-08-17T05:23:56.315Z,8660
2022-08-17T05:24:56.136Z,8856
2022-08-17T05:25:56.747Z,9056
2022-08-17T05:27:02.560Z,9236
2022-08-17T05:27:58.957Z,9380
2022-08-17T05:29:02.417Z,9484
2022-08-17T05:30:00.203Z,9560
2022-08-17T05:31:00.813Z,9620
2022-08-17T05:32:01.438Z,9704
2022-08-17T05:33:03.029Z,9800
2022-08-17T05:34:03.649Z,9888
2022-08-17T05:35:04.289Z,10000
2022-08-17T05:36:04.892Z,10108
2022-08-17T05:37:05.492Z,10220
2022-08-17T05:38:06.096Z,10340
2022-08-17T05:39:06.694Z,10440
2022-08-17T05:40:07.368Z,10508
2022-08-17T05:41:07.953Z,10544
2022-08-17T05:42:08.592Z,10568
2022-08-17T05:43:09.178Z,10616
2022-08-17T05:44:09.797Z,10684
2022-08-17T05:45:10.402Z,10732
2022-08-17T05:46:11.004Z,10788
2022-08-17T05:47:11.607Z,10844
2022-08-17T05:48:12.209Z,10908
2022-08-17T05:49:12.813Z,10980
2022-08-17T05:50:13.444Z,11048
2022-08-17T05:51:14.051Z,11128
2022-08-17T05:52:14.660Z,11212
2022-08-17T05:53:15.270Z,11312
2022-08-17T05:54:15.873Z,11428
2022-08-17T05:55:16.477Z,11556
2022-08-17T05:56:27.947Z,11696
2022-08-17T05:57:19.739Z,11852
2022-08-17T05:58:20.274Z,12012
2022-08-17T05:59:20.875Z,12168
2022-08-17T06:00:21.477Z,12328
2022-08-17T06:01:23.105Z,12468
2022-08-17T06:02:23.676Z,12620
2022-08-17T06:03:24.277Z,12756
2022-08-17T06:04:24.879Z,12896
2022-08-17T06:05:25.482Z,13020
2022-08-17T06:06:31.259Z,13120
2022-08-17T06:07:27.679Z,13192
2022-08-17T06:08:28.280Z,13252
2022-08-17T06:09:33.412Z,13332
2022-08-17T06:10:30.480Z,13444
2022-08-17T06:11:31.082Z,13552
2022-08-17T06:12:31.705Z,13728
2022-08-17T06:13:33.301Z,13892
2022-08-17T06:14:33.905Z,14004
2022-08-17T06:15:34.511Z,14400
2022-08-17T06:16:35.111Z,14716
2022-08-17T06:17:35.715Z,15296
2022-08-17T06:18:36.317Z,15908
2022-08-17T06:19:36.922Z,16388
2022-08-17T06:20:37.523Z,16832
2022-08-17T06:21:38.125Z,17052
2022-08-17T06:22:38.749Z,17148
2022-08-17T06:23:39.354Z,17112
2022-08-17T06:24:39.967Z,17168
2022-08-17T06:25:40.578Z,17188
2022-08-17T06:26:43.402Z,17452
2022-08-17T06:27:42.779Z,17456
2022-08-17T06:28:43.402Z,17300
2022-08-17T06:29:44.001Z,17216
2022-08-17T06:30:59.447Z,17116
2022-08-17T06:31:46.199Z,17128
2022-08-17T06:32:46.848Z,16948
2022-08-17T06:33:47.433Z,16812
2022-08-17T06:34:48.036Z,16672
2022-08-17T06:35:48.658Z,16756
2022-08-17T06:36:50.253Z,16208
2022-08-17T06:37:50.857Z,16736
2022-08-17T06:38:51.481Z,17044
2022-08-17T06:39:52.129Z,17164
2022-08-17T06:40:52.702Z,17624
2022-08-17T06:41:53.304Z,18528
2022-08-17T06:43:05.710Z,18464
2022-08-17T06:43:55.522Z,18400
2022-08-17T06:44:56.146Z,18112
2022-08-17T06:45:56.728Z,17828
2022-08-17T06:46:57.331Z,18208
2022-08-17T06:47:57.933Z,18240
2022-08-17T06:48:58.537Z,18528
2022-08-17T06:49:59.158Z,19232
2022-08-17T06:50:59.758Z,18912
2022-08-17T06:52:00.502Z,18464
2022-08-17T06:53:01.223Z,17884
2022-08-17T06:54:01.926Z,18240
2022-08-17T06:55:02.529Z,17792
2022-08-17T06:56:03.130Z,17180
2022-08-17T06:57:03.734Z,17232
2022-08-17T06:58:05.781Z,17124
2022-08-17T06:59:04.970Z,17260
2022-08-17T07:00:05.574Z,17560
2022-08-17T07:01:06.241Z,18336
2022-08-17T07:02:07.003Z,18272
2022-08-17T07:03:07.899Z,18816
2022-08-17T07:04:12.206Z,18976
2022-08-17T07:05:09.394Z,19168
2022-08-17T07:06:10.000Z,18880
2022-08-17T07:07:10.602Z,20352
2022-08-17T07:08:11.218Z,21312
2022-08-17T07:09:11.837Z,20672
2022-08-17T07:10:12.434Z,18720
2022-08-17T07:11:13.044Z,18880
2022-08-17T07:12:13.638Z,20640
2022-08-17T07:13:14.240Z,22528
2022-08-17T07:14:17.318Z,22208
2022-08-17T07:15:16.438Z,22784
2022-08-17T07:16:17.043Z,24352
2022-08-17T07:17:17.645Z,24544
2022-08-17T07:18:18.251Z,26112
2022-08-17T07:19:18.873Z,27328
2022-08-17T07:20:19.479Z,28768
2022-08-17T07:21:22.922Z,28832
2022-08-17T07:22:20.702Z,27808
2022-08-17T07:23:21.305Z,28512
2022-08-17T07:24:30.253Z,30176
2022-08-17T07:25:23.504Z,30016
2022-08-17T07:26:24.111Z,28128
2022-08-17T07:27:24.715Z,26784
2022-08-17T07:28:25.318Z,27456
2022-08-17T07:29:25.920Z,28096
2022-08-17T07:30:26.524Z,30848
2022-08-17T07:31:27.127Z,29504
2022-08-17T07:32:27.733Z,36064
2022-08-17T07:33:28.334Z,36448
2022-08-17T07:34:29.183Z,37152
2022-08-17T07:35:31.271Z,39872
2022-08-17T07:36:30.479Z,44032
2022-08-17T07:37:31.081Z,42752
2022-08-17T07:38:31.685Z,41664
2022-08-17T07:39:32.340Z,40672
2022-08-17T07:40:32.937Z,42688
2022-08-17T07:41:57.585Z,41248
2022-08-17T07:42:35.095Z,37632
2022-08-17T07:43:35.699Z,32512
2022-08-17T07:44:36.304Z,28800
2022-08-17T07:45:36.906Z,28800
2022-08-17T07:46:37.512Z,32192
2022-08-17T07:47:38.116Z,30272
2022-08-17T07:48:38.740Z,31904
2022-08-17T07:49:39.341Z,36352
2022-08-17T07:50:39.960Z,36032
2022-08-17T07:51:40.567Z,33600
2022-08-17T07:52:51.714Z,32512
2022-08-17T07:53:42.785Z,29664
2022-08-17T07:54:43.390Z,26976
2022-08-17T07:55:43.994Z,25824
2022-08-17T07:56:44.597Z,25248
2022-08-17T07:57:45.201Z,24864
2022-08-17T07:58:45.805Z,24736
2022-08-17T07:59:46.410Z,25376
2022-08-17T08:00:47.029Z,27392
2022-08-17T08:01:47.663Z,30144
2022-08-17T08:02:49.229Z,31968
2022-08-17T08:03:52.591Z,33120
2022-08-17T08:05:08.862Z,34016
2022-08-17T08:05:53.026Z,34656
2022-08-17T08:06:53.629Z,34496
2022-08-17T08:07:54.253Z,33504
2022-08-17T08:08:54.864Z,37056
2022-08-17T08:09:55.470Z,38176
2022-08-17T08:10:56.074Z,35840
2022-08-17T08:11:56.677Z,38176
2022-08-17T08:12:57.282Z,39008
2022-08-17T08:13:58.865Z,41536
2022-08-17T08:14:59.479Z,42272
2022-08-17T08:16:00.074Z,41120
2022-08-17T08:17:00.679Z,41216
2022-08-17T08:18:01.282Z,43808
2022-08-17T08:19:01.893Z,45248
2022-08-17T08:20:35.048Z,44448
2022-08-17T08:21:04.347Z,42624
2022-08-17T08:22:04.950Z,44384
2022-08-17T08:23:05.554Z,43072
2022-08-17T08:24:06.155Z,42272
2022-08-17T08:25:06.757Z,41888
2022-08-17T08:26:07.361Z,39552
2022-08-17T08:27:08.619Z,34656
2022-08-17T08:28:09.243Z,33216
2022-08-17T08:29:09.847Z,32768
2022-08-17T08:30:10.452Z,31936
2022-08-17T08:31:11.056Z,31680
2022-08-17T08:32:11.661Z,31168
2022-08-17T08:33:12.265Z,30976
2022-08-17T08:34:58.623Z,30816
2022-08-17T08:35:14.468Z,30784
2022-08-17T08:37:12.551Z,30880
2022-08-17T08:37:22.826Z,31104
2022-08-17T08:38:18.287Z,31200
2022-08-17T08:39:18.892Z,31296
2022-08-17T08:40:19.580Z,31552
2022-08-17T08:41:20.210Z,31872
2022-08-17T08:42:20.924Z,32128
2022-08-17T08:43:21.446Z,32320
2022-08-17T08:44:22.052Z,32224
2022-08-17T08:45:23.647Z,32192
2022-08-17T08:46:24.256Z,32096
2022-08-17T08:47:24.856Z,32064
2022-08-17T08:48:52.840Z,32160
2022-08-17T08:49:58.967Z,32224
2022-08-17T08:50:37.745Z,32448
2022-08-17T08:51:30.277Z,32832
2022-08-17T08:52:30.899Z,33344
2022-08-17T08:53:31.521Z,34080
2022-08-17T08:54:32.127Z,34976
2022-08-17T08:55:32.731Z,36320
2022-08-17T08:56:33.335Z,38592
2022-08-17T08:57:34.722Z,40032
2022-08-17T08:58:41.759Z,42400
2022-08-17T08:59:41.912Z,46144
2022-08-17T09:00:38.554Z,49856
2022-08-17T09:01:39.176Z,51712
2022-08-17T09:02:39.761Z,50784
2022-08-17T09:03:52.444Z,51040
2022-08-17T09:05:10.548Z,47328
2022-08-17T09:05:43.556Z,45536
2022-08-17T09:06:44.161Z,45696
2022-08-17T09:07:44.778Z,45344
2022-08-17T09:08:45.371Z,49888
2022-08-17T09:09:46.140Z,51744
2022-08-17T09:10:46.689Z,50816
2022-08-17T09:12:02.521Z,49120
2022-08-17T09:12:48.890Z,44864
2022-08-17T09:13:54.372Z,44352
2022-08-17T09:14:51.090Z,45120
2022-08-17T09:15:51.696Z,50176
2022-08-17T09:16:52.297Z,46336
2022-08-17T09:18:08.660Z,45792
2022-08-17T09:18:59.791Z,48160
2022-08-17T09:19:55.117Z,50720
2022-08-17T09:20:55.724Z,59520
2022-08-17T09:21:56.325Z,51040
2022-08-17T09:22:56.927Z,51232
2022-08-17T09:23:57.532Z,52000
2022-08-17T09:24:58.138Z,46720
2022-08-17T09:25:58.763Z,46912
2022-08-17T09:26:59.377Z,47584
2022-08-17T09:28:00.772Z,54816
2022-08-17T09:29:01.474Z,49504
2022-08-17T09:30:02.058Z,44160
2022-08-17T09:31:02.662Z,42368
2022-08-17T09:32:03.267Z,38944
2022-08-17T09:33:03.870Z,39648
2022-08-17T09:34:04.475Z,47040
2022-08-17T09:35:05.079Z,51936
2022-08-17T09:36:05.704Z,52064
2022-08-17T09:37:06.308Z,38400
2022-08-17T09:38:06.912Z,38176
2022-08-17T09:39:07.537Z,46368
2022-08-17T09:40:08.564Z,44096
2022-08-17T09:41:09.181Z,44800
2022-08-17T09:42:09.801Z,44384
2022-08-17T09:43:10.404Z,55616
2022-08-17T09:44:13.988Z,45920
2022-08-17T09:45:12.606Z,42176
2022-08-17T09:46:13.209Z,45696
2022-08-17T09:47:13.810Z,40000
2022-08-17T09:48:14.435Z,40800
2022-08-17T09:49:16.030Z,63680
2022-08-17T09:50:16.689Z,46592
2022-08-17T09:51:17.236Z,70944
2022-08-17T09:52:17.979Z,55232
2022-08-17T09:53:18.662Z,75680
2022-08-17T09:54:38.048Z,60480
2022-08-17T09:55:20.861Z,76704
2022-08-17T09:56:21.466Z,61984
2022-08-17T09:57:31.113Z,48768
2022-08-17T09:58:23.667Z,58624
2022-08-17T09:59:25.264Z,64000
2022-08-17T10:00:26.061Z,80256
2022-08-17T10:01:26.745Z,66528
2022-08-17T10:02:27.282Z,57760
2022-08-17T10:03:27.887Z,52000
2022-08-17T10:04:29.728Z,59936
2022-08-17T10:05:30.088Z,58720
2022-08-17T10:06:30.692Z,91008
2022-08-17T10:07:31.295Z,67136
2022-08-17T10:08:31.898Z,97664
2022-08-17T10:09:32.504Z,73440
2022-08-17T10:10:33.146Z,84896
2022-08-17T10:11:34.099Z,93792
2022-08-17T10:12:35.643Z,105472
2022-08-17T10:13:37.237Z,81760
2022-08-17T10:14:43.958Z,64224
2022-08-17T10:15:41.711Z,65376
2022-08-17T10:16:41.034Z,66944
2022-08-17T10:17:41.637Z,73408
2022-08-17T10:18:42.244Z,61664
2022-08-17T10:19:43.925Z,57088
2022-08-17T10:20:44.444Z,53152
2022-08-17T10:21:45.049Z,51712
2022-08-17T10:22:47.831Z,62496
2022-08-17T10:23:47.250Z,58048
2022-08-17T10:25:21.492Z,50528
2022-08-17T10:25:55.071Z,52352
2022-08-17T10:26:56.507Z,54112
2022-08-17T10:27:51.739Z,66784
2022-08-17T10:28:52.416Z,52992
2022-08-17T10:29:53.020Z,53344
2022-08-17T10:31:05.303Z,52864
2022-08-17T10:31:55.223Z,51232
2022-08-17T10:32:55.828Z,63392
2022-08-17T10:33:56.453Z,51616
2022-08-17T10:34:57.057Z,47872
2022-08-17T10:35:57.663Z,45568
2022-08-17T10:36:58.288Z,44160
2022-08-17T10:37:58.895Z,42688
2022-08-17T10:38:59.502Z,41920
2022-08-17T10:40:00.222Z,40928
2022-08-17T10:41:00.829Z,40384
2022-08-17T10:42:01.444Z,40128
2022-08-17T10:43:02.049Z,39456
2022-08-17T10:44:38.659Z,39136
2022-08-17T10:45:05.244Z,38912
2022-08-17T10:46:10.469Z,39104
2022-08-17T10:47:07.444Z,39712
2022-08-17T10:48:08.459Z,40352
2022-08-17T10:49:09.195Z,41280
2022-08-17T10:50:09.802Z,42240
2022-08-17T10:51:10.406Z,42336
2022-08-17T10:52:11.025Z,42272
2022-08-17T10:53:11.614Z,41664
2022-08-17T10:54:12.286Z,41120
2022-08-17T10:55:12.888Z,41472
2022-08-17T10:56:13.521Z,40832
2022-08-17T10:57:14.113Z,40256
2022-08-17T10:58:14.728Z,39104
2022-08-17T10:59:15.326Z,38048
2022-08-17T11:00:15.953Z,36224
2022-08-17T11:01:16.557Z,35104
2022-08-17T11:02:17.134Z,34048
2022-08-17T11:03:17.749Z,33408
2022-08-17T11:04:18.342Z,33184
2022-08-17T11:05:18.968Z,33536
2022-08-17T11:06:19.572Z,34592
2022-08-17T11:07:20.178Z,36224
2022-08-17T11:08:20.806Z,37568
2022-08-17T11:09:22.401Z,39488
2022-08-17T11:10:23.007Z,41056
2022-08-17T11:11:23.630Z,42016
2022-08-17T11:12:24.237Z,43584
2022-08-17T11:13:24.839Z,45312
2022-08-17T11:14:25.443Z,46624
2022-08-17T11:15:26.044Z,45952
2022-08-17T11:16:27.056Z,44448
2022-08-17T11:17:27.663Z,42912
2022-08-17T11:18:28.268Z,41600
2022-08-17T11:19:28.869Z,40736
2022-08-17T11:20:29.493Z,40032
2022-08-17T11:21:30.116Z,39584
2022-08-17T11:22:33.482Z,39520
2022-08-17T11:23:32.339Z,40032
2022-08-17T11:24:32.945Z,40480
2022-08-17T11:25:33.571Z,40704
2022-08-17T11:26:34.175Z,40800
2022-08-17T11:27:34.781Z,41152
2022-08-17T11:28:35.401Z,41984
2022-08-17T11:29:36.023Z,43392
2022-08-17T11:30:37.524Z,45760
2022-08-17T11:31:39.856Z,48704
2022-08-17T11:32:47.142Z,52992
2022-08-17T11:33:41.323Z,57952
2022-08-17T11:34:42.921Z,62528
2022-08-17T11:35:43.525Z,62560
2022-08-17T11:36:44.133Z,64512
2022-08-17T11:37:45.730Z,61568
2022-08-17T11:38:46.333Z,56864
2022-08-17T11:39:46.966Z,50240
2022-08-17T11:40:47.562Z,44256
2022-08-17T11:41:48.165Z,40416
2022-08-17T11:42:48.956Z,37632
2022-08-17T11:43:49.642Z,35584
2022-08-17T11:44:50.250Z,34112
2022-08-17T11:45:50.870Z,33056
2022-08-17T11:46:52.000Z,32288
2022-08-17T11:48:16.086Z,31552
2022-08-17T11:48:54.203Z,30784
2022-08-17T11:49:54.807Z,30016
2022-08-17T11:50:55.411Z,29312
2022-08-17T11:51:56.014Z,28672
2022-08-17T11:52:56.619Z,28064
2022-08-17T11:54:21.498Z,27552
2022-08-17T11:55:12.414Z,27008
2022-08-17T11:56:00.414Z,26560
2022-08-17T11:57:01.021Z,26176
2022-08-17T11:58:01.725Z,25952
2022-08-17T11:59:02.357Z,25952
2022-08-17T12:00:02.966Z,25984
2022-08-17T12:01:03.583Z,26144
2022-08-17T12:02:05.176Z,26240
2022-08-17T12:03:05.858Z,26336
2022-08-17T12:04:06.476Z,26336
2022-08-17T12:05:11.878Z,26272
2022-08-17T12:06:08.641Z,26080
2022-08-17T12:07:09.248Z,25792
2022-08-17T12:08:09.870Z,25568
2022-08-17T12:09:10.492Z,25344
2022-08-17T12:10:11.100Z,25120
2022-08-17T12:11:11.704Z,24768
2022-08-17T12:12:14.260Z,24448
2022-08-17T12:13:13.902Z,24288
2022-08-17T12:14:18.478Z,24448
2022-08-17T12:15:16.104Z,24928
2022-08-17T12:16:16.706Z,25632
2022-08-17T12:17:26.483Z,26432
2022-08-17T12:18:18.919Z,27552
2022-08-17T12:19:19.525Z,28992
2022-08-17T12:20:20.127Z,30592
2022-08-17T12:21:20.735Z,32096
2022-08-17T12:22:21.358Z,33408
2022-08-17T12:23:21.964Z,34432
2022-08-17T12:24:22.567Z,35072
2022-08-17T12:25:23.171Z,35584
2022-08-17T12:26:23.777Z,36000
2022-08-17T12:28:04.530Z,36160
2022-08-17T12:28:25.979Z,36384
2022-08-17T12:29:35.738Z,36864
2022-08-17T12:30:28.181Z,37120
2022-08-17T12:31:28.805Z,37696
2022-08-17T12:32:29.431Z,38464
2022-08-17T12:33:30.037Z,39328
2022-08-17T12:34:30.637Z,38464
2022-08-17T12:35:31.241Z,38208
2022-08-17T12:36:31.850Z,37376
2022-08-17T12:37:32.487Z,36096
2022-08-17T12:38:33.696Z,34592
2022-08-17T12:39:34.341Z,33120
2022-08-17T12:40:34.900Z,31968
2022-08-17T12:41:35.507Z,30976
2022-08-17T12:42:36.130Z,30176
2022-08-17T12:43:36.756Z,29632
2022-08-17T12:44:46.149Z,29312
2022-08-17T12:45:38.956Z,29088
2022-08-17T12:46:39.560Z,28736
2022-08-17T12:47:40.164Z,28384
2022-08-17T12:48:40.774Z,28000
2022-08-17T12:49:41.389Z,27456
2022-08-17T12:50:41.998Z,27008
2022-08-17T12:51:42.603Z,26624
2022-08-17T12:52:43.198Z,26336
2022-08-17T12:53:44.795Z,26144
2022-08-17T12:54:45.399Z,26048
2022-08-17T12:55:46.002Z,25824
2022-08-17T12:56:47.665Z,25440
2022-08-17T12:57:47.357Z,24960
2022-08-17T12:58:47.938Z,24288
2022-08-17T12:59:48.540Z,23488
2022-08-17T13:00:49.270Z,22464
2022-08-17T13:01:49.956Z,21184
2022-08-17T13:02:50.530Z,19648
2022-08-17T13:03:51.135Z,18080
2022-08-17T13:04:51.738Z,16532
2022-08-17T13:05:52.343Z,15408
2022-08-17T13:06:59.542Z,14624
2022-08-17T13:07:54.551Z,14224
2022-08-17T13:08:55.145Z,14216
2022-08-17T13:09:55.748Z,14544
2022-08-17T13:10:56.373Z,15160
2022-08-17T13:11:56.973Z,16000
2022-08-17T13:12:57.596Z,16932
2022-08-17T13:13:58.201Z,17856
2022-08-17T13:14:58.802Z,18272
2022-08-17T13:15:59.405Z,18080
2022-08-17T13:17:00.005Z,17112
2022-08-17T13:18:00.608Z,16028
2022-08-17T13:19:01.211Z,15000
2022-08-17T13:20:01.814Z,14276
2022-08-17T13:21:02.416Z,13892
2022-08-17T13:22:04.144Z,13824
2022-08-17T13:23:07.573Z,14024
2022-08-17T13:24:06.232Z,14412
2022-08-17T13:25:06.858Z,14944
2022-08-17T13:26:07.463Z,15604
2022-08-17T13:27:08.589Z,16312
2022-08-17T13:28:09.287Z,16992
2022-08-17T13:29:09.888Z,17496
2022-08-17T13:30:10.492Z,17984
2022-08-17T13:31:11.094Z,18144
2022-08-17T13:32:13.419Z,18272
2022-08-17T13:33:13.294Z,18560
2022-08-17T13:34:14.892Z,19008
2022-08-17T13:35:24.655Z,19584
2022-08-17T13:36:19.391Z,20224
2022-08-17T13:37:19.141Z,20832